sensor_id;sensor_type;location;lat;lon;timestamp;P1;durP1;ratioP1;P2;durP2;ratioP2
77409;SDS011;66481;51.332;22.804;2024-01-10T00:03:53;53.47;;;19.80;;
77409;SDS011;66481;51.332;22.804;2024-01-10T00:07:55;34.78;;;15.32;;
77409;SDS011;66481;51.332;22.804;2024-01-10T00:11:56;22.80;;;16.27;;
77409;SDS011;66481;51.332;22.804;2024-01-10T00:15:57;32.10;;;14.52;;
77409;SDS011;66481;51.332;22.804;2024-01-10T00:19:59;31.20;;;14.82;;
77409;SDS011;66481;51.332;22.804;2024-01-10T00:24:00;21.55;;;11.07;;
77409;SDS011;66481;51.332;22.804;2024-01-10T00:28:01;24.55;;;12.88;;
77409;SDS011;66481;51.332;22.804;2024-01-10T00:32:03;18.75;;;11.52;;
77409;SDS011;66481;51.332;22.804;2024-01-10T00:36:05;14.90;;;7.20;;
77409;SDS011;66481;51.332;22.804;2024-01-10T00:40:07;16.08;;;11.43;;
77409;SDS011;66481;51.332;22.804;2024-01-10T00:44:08;34.90;;;14.88;;
77409;SDS011;66481;51.332;22.804;2024-01-10T00:48:09;18.33;;;10.65;;
77409;SDS011;66481;51.332;22.804;2024-01-10T00:52:12;14.63;;;10.18;;
77409;SDS011;66481;51.332;22.804;2024-01-10T00:56:14;23.67;;;10.95;;
77409;SDS011;66481;51.332;22.804;2024-01-10T01:00:15;29.20;;;14.52;;
77409;SDS011;66481;51.332;22.804;2024-01-10T01:04:16;23.00;;;11.30;;
77409;SDS011;66481;51.332;22.804;2024-01-10T01:08:18;19.08;;;10.38;;
77409;SDS011;66481;51.332;22.804;2024-01-10T01:12:19;21.85;;;14.25;;
77409;SDS011;66481;51.332;22.804;2024-01-10T01:16:20;23.65;;;13.45;;
77409;SDS011;66481;51.332;22.804;2024-01-10T01:20:21;26.13;;;14.00;;
77409;SDS011;66481;51.332;22.804;2024-01-10T01:24:22;30.50;;;17.00;;
77409;SDS011;66481;51.332;22.804;2024-01-10T01:28:23;18.45;;;9.40;;
77409;SDS011;66481;51.332;22.804;2024-01-10T01:32:25;24.40;;;12.25;;
77409;SDS011;66481;51.332;22.804;2024-01-10T01:36:26;21.17;;;14.15;;
77409;SDS011;66481;51.332;22.804;2024-01-10T01:40:27;23.95;;;14.20;;
77409;SDS011;66481;51.332;22.804;2024-01-10T01:44:28;28.02;;;12.93;;
77409;SDS011;66481;51.332;22.804;2024-01-10T01:48:30;24.60;;;13.68;;
77409;SDS011;66481;51.332;22.804;2024-01-10T01:52:31;13.93;;;10.40;;
77409;SDS011;66481;51.332;22.804;2024-01-10T01:56:33;17.73;;;13.30;;
77409;SDS011;66481;51.332;22.804;2024-01-10T02:00:34;20.40;;;14.00;;
77409;SDS011;66481;51.332;22.804;2024-01-10T02:04:36;36.08;;;15.05;;
77409;SDS011;66481;51.332;22.804;2024-01-10T02:08:37;19.23;;;9.25;;
77409;SDS011;66481;51.332;22.804;2024-01-10T02:12:38;21.63;;;11.73;;
77409;SDS011;66481;51.332;22.804;2024-01-10T02:16:40;12.45;;;7.97;;
77409;SDS011;66481;51.332;22.804;2024-01-10T02:20:44;31.80;;;15.48;;
77409;SDS011;66481;51.332;22.804;2024-01-10T02:24:52;22.00;;;13.48;;
77409;SDS011;66481;51.332;22.804;2024-01-10T02:28:55;23.45;;;12.05;;
77409;SDS011;66481;51.332;22.804;2024-01-10T02:32:56;33.58;;;17.95;;
77409;SDS011;66481;51.332;22.804;2024-01-10T02:36:57;20.10;;;11.95;;
77409;SDS011;66481;51.332;22.804;2024-01-10T02:40:58;21.23;;;11.90;;
77409;SDS011;66481;51.332;22.804;2024-01-10T02:45:01;26.38;;;11.70;;
77409;SDS011;66481;51.332;22.804;2024-01-10T02:49:02;24.83;;;11.30;;
77409;SDS011;66481;51.332;22.804;2024-01-10T02:53:03;23.85;;;11.60;;
77409;SDS011;66481;51.332;22.804;2024-01-10T02:57:04;23.27;;;10.68;;
77409;SDS011;66481;51.332;22.804;2024-01-10T03:01:05;16.88;;;9.82;;
77409;SDS011;66481;51.332;22.804;2024-01-10T03:05:07;19.90;;;12.98;;
77409;SDS011;66481;51.332;22.804;2024-01-10T03:09:08;14.40;;;8.50;;
77409;SDS011;66481;51.332;22.804;2024-01-10T03:13:09;13.35;;;8.68;;
77409;SDS011;66481;51.332;22.804;2024-01-10T03:17:10;19.48;;;9.68;;
77409;SDS011;66481;51.332;22.804;2024-01-10T03:21:11;18.23;;;8.85;;
77409;SDS011;66481;51.332;22.804;2024-01-10T03:25:12;10.95;;;9.80;;
77409;SDS011;66481;51.332;22.804;2024-01-10T03:29:13;10.93;;;8.60;;
77409;SDS011;66481;51.332;22.804;2024-01-10T03:33:15;20.65;;;11.52;;
77409;SDS011;66481;51.332;22.804;2024-01-10T03:37:16;20.95;;;11.88;;
77409;SDS011;66481;51.332;22.804;2024-01-10T03:41:17;18.17;;;12.02;;
77409;SDS011;66481;51.332;22.804;2024-01-10T03:45:19;20.55;;;10.73;;
77409;SDS011;66481;51.332;22.804;2024-01-10T03:49:23;9.02;;;7.13;;
77409;SDS011;66481;51.332;22.804;2024-01-10T03:53:24;10.60;;;7.35;;
77409;SDS011;66481;51.332;22.804;2024-01-10T03:57:25;21.05;;;8.60;;
77409;SDS011;66481;51.332;22.804;2024-01-10T04:01:27;28.02;;;12.63;;
77409;SDS011;66481;51.332;22.804;2024-01-10T04:05:28;17.02;;;12.00;;
77409;SDS011;66481;51.332;22.804;2024-01-10T04:09:29;10.95;;;6.57;;
77409;SDS011;66481;51.332;22.804;2024-01-10T04:13:30;10.50;;;5.18;;
77409;SDS011;66481;51.332;22.804;2024-01-10T04:17:31;27.77;;;13.10;;
77409;SDS011;66481;51.332;22.804;2024-01-10T04:21:32;25.92;;;12.02;;
77409;SDS011;66481;51.332;22.804;2024-01-10T04:25:33;25.85;;;9.90;;
77409;SDS011;66481;51.332;22.804;2024-01-10T04:29:35;14.57;;;11.80;;
77409;SDS011;66481;51.332;22.804;2024-01-10T04:33:36;16.50;;;9.55;;
77409;SDS011;66481;51.332;22.804;2024-01-10T04:37:36;14.68;;;9.27;;
77409;SDS011;66481;51.332;22.804;2024-01-10T04:41:37;12.70;;;6.85;;
77409;SDS011;66481;51.332;22.804;2024-01-10T04:45:40;13.70;;;7.70;;
77409;SDS011;66481;51.332;22.804;2024-01-10T04:49:41;10.57;;;9.23;;
77409;SDS011;66481;51.332;22.804;2024-01-10T04:53:42;16.85;;;9.10;;
77409;SDS011;66481;51.332;22.804;2024-01-10T04:57:44;12.52;;;7.45;;
77409;SDS011;66481;51.332;22.804;2024-01-10T05:01:45;7.85;;;6.63;;
77409;SDS011;66481;51.332;22.804;2024-01-10T05:05:46;12.98;;;7.13;;
77409;SDS011;66481;51.332;22.804;2024-01-10T05:09:47;12.77;;;9.35;;
77409;SDS011;66481;51.332;22.804;2024-01-10T05:13:49;12.27;;;9.18;;
77409;SDS011;66481;51.332;22.804;2024-01-10T05:17:50;13.73;;;7.78;;
77409;SDS011;66481;51.332;22.804;2024-01-10T05:21:51;10.98;;;6.10;;
77409;SDS011;66481;51.332;22.804;2024-01-10T05:25:52;10.48;;;8.60;;
77409;SDS011;66481;51.332;22.804;2024-01-10T05:29:53;26.38;;;13.82;;
77409;SDS011;66481;51.332;22.804;2024-01-10T05:33:55;15.35;;;7.68;;
77409;SDS011;66481;51.332;22.804;2024-01-10T05:37:56;18.40;;;9.00;;
77409;SDS011;66481;51.332;22.804;2024-01-10T05:41:57;8.88;;;7.22;;
77409;SDS011;66481;51.332;22.804;2024-01-10T05:45:59;14.68;;;8.70;;
77409;SDS011;66481;51.332;22.804;2024-01-10T05:50:00;62.00;;;15.00;;
77409;SDS011;66481;51.332;22.804;2024-01-10T05:54:02;18.33;;;12.02;;
77409;SDS011;66481;51.332;22.804;2024-01-10T05:58:05;19.58;;;10.85;;
77409;SDS011;66481;51.332;22.804;2024-01-10T06:02:06;22.17;;;8.63;;
77409;SDS011;66481;51.332;22.804;2024-01-10T06:06:09;14.73;;;9.55;;
77409;SDS011;66481;51.332;22.804;2024-01-10T06:10:11;23.77;;;13.43;;
77409;SDS011;66481;51.332;22.804;2024-01-10T06:14:12;24.50;;;12.05;;
77409;SDS011;66481;51.332;22.804;2024-01-10T06:18:13;13.13;;;9.90;;
77409;SDS011;66481;51.332;22.804;2024-01-10T06:22:15;10.68;;;7.13;;
77409;SDS011;66481;51.332;22.804;2024-01-10T06:26:17;12.35;;;8.77;;
77409;SDS011;66481;51.332;22.804;2024-01-10T06:30:18;15.68;;;8.82;;
77409;SDS011;66481;51.332;22.804;2024-01-10T06:34:19;22.67;;;10.88;;
77409;SDS011;66481;51.332;22.804;2024-01-10T06:38:20;19.77;;;10.23;;
77409;SDS011;66481;51.332;22.804;2024-01-10T06:42:23;11.35;;;9.15;;
77409;SDS011;66481;51.332;22.804;2024-01-10T06:46:24;17.08;;;10.10;;
77409;SDS011;66481;51.332;22.804;2024-01-10T06:50:25;37.20;;;16.35;;
77409;SDS011;66481;51.332;22.804;2024-01-10T06:54:28;12.90;;;8.75;;
77409;SDS011;66481;51.332;22.804;2024-01-10T06:58:29;18.27;;;8.40;;
77409;SDS011;66481;51.332;22.804;2024-01-10T07:02:30;17.10;;;9.40;;
77409;SDS011;66481;51.332;22.804;2024-01-10T07:06:33;27.88;;;14.50;;
77409;SDS011;66481;51.332;22.804;2024-01-10T07:10:34;22.90;;;11.98;;
77409;SDS011;66481;51.332;22.804;2024-01-10T07:14:35;24.23;;;12.25;;
77409;SDS011;66481;51.332;22.804;2024-01-10T07:18:37;32.47;;;13.10;;
77409;SDS011;66481;51.332;22.804;2024-01-10T07:22:40;33.42;;;14.57;;
77409;SDS011;66481;51.332;22.804;2024-01-10T07:26:44;33.00;;;17.85;;
77409;SDS011;66481;51.332;22.804;2024-01-10T07:30:46;45.78;;;17.83;;
77409;SDS011;66481;51.332;22.804;2024-01-10T07:34:47;40.65;;;17.50;;
77409;SDS011;66481;51.332;22.804;2024-01-10T07:38:48;33.58;;;14.68;;
77409;SDS011;66481;51.332;22.804;2024-01-10T07:42:49;43.25;;;18.67;;
77409;SDS011;66481;51.332;22.804;2024-01-10T07:46:50;25.40;;;14.65;;
77409;SDS011;66481;51.332;22.804;2024-01-10T07:50:54;37.45;;;17.10;;
77409;SDS011;66481;51.332;22.804;2024-01-10T07:54:56;41.15;;;16.63;;
77409;SDS011;66481;51.332;22.804;2024-01-10T07:58:58;39.67;;;17.15;;
77409;SDS011;66481;51.332;22.804;2024-01-10T08:02:59;45.55;;;19.98;;
77409;SDS011;66481;51.332;22.804;2024-01-10T08:07:01;43.95;;;18.48;;
77409;SDS011;66481;51.332;22.804;2024-01-10T08:11:02;38.45;;;19.42;;
77409;SDS011;66481;51.332;22.804;2024-01-10T08:15:04;33.65;;;18.58;;
77409;SDS011;66481;51.332;22.804;2024-01-10T08:19:07;41.70;;;17.45;;
77409;SDS011;66481;51.332;22.804;2024-01-10T08:23:08;37.92;;;16.67;;
77409;SDS011;66481;51.332;22.804;2024-01-10T08:27:10;40.35;;;17.40;;
77409;SDS011;66481;51.332;22.804;2024-01-10T08:31:11;37.00;;;17.55;;
77409;SDS011;66481;51.332;22.804;2024-01-10T08:35:13;34.35;;;15.52;;
77409;SDS011;66481;51.332;22.804;2024-01-10T08:39:14;37.03;;;18.35;;
77409;SDS011;66481;51.332;22.804;2024-01-10T08:43:15;34.65;;;14.25;;
77409;SDS011;66481;51.332;22.804;2024-01-10T08:47:18;36.28;;;15.70;;
77409;SDS011;66481;51.332;22.804;2024-01-10T08:51:20;60.35;;;21.38;;
77409;SDS011;66481;51.332;22.804;2024-01-10T08:55:22;50.55;;;19.70;;
77409;SDS011;66481;51.332;22.804;2024-01-10T08:59:25;39.83;;;16.45;;
77409;SDS011;66481;51.332;22.804;2024-01-10T09:03:26;40.05;;;17.40;;
77409;SDS011;66481;51.332;22.804;2024-01-10T09:07:27;41.83;;;18.23;;
77409;SDS011;66481;51.332;22.804;2024-01-10T09:11:29;34.90;;;15.05;;
77409;SDS011;66481;51.332;22.804;2024-01-10T09:15:30;39.25;;;17.65;;
77409;SDS011;66481;51.332;22.804;2024-01-10T09:19:32;38.05;;;17.27;;
77409;SDS011;66481;51.332;22.804;2024-01-10T09:23:33;35.83;;;15.77;;
77409;SDS011;66481;51.332;22.804;2024-01-10T09:27:34;37.47;;;19.50;;
77409;SDS011;66481;51.332;22.804;2024-01-10T09:31:36;36.95;;;17.63;;
77409;SDS011;66481;51.332;22.804;2024-01-10T09:35:37;29.88;;;15.50;;
77409;SDS011;66481;51.332;22.804;2024-01-10T09:39:39;42.70;;;18.92;;
77409;SDS011;66481;51.332;22.804;2024-01-10T09:43:40;38.40;;;16.85;;
77409;SDS011;66481;51.332;22.804;2024-01-10T09:47:41;30.75;;;15.82;;
77409;SDS011;66481;51.332;22.804;2024-01-10T09:51:47;30.83;;;15.93;;
77409;SDS011;66481;51.332;22.804;2024-01-10T09:55:50;32.97;;;14.82;;
77409;SDS011;66481;51.332;22.804;2024-01-10T09:59:51;34.10;;;17.67;;
77409;SDS011;66481;51.332;22.804;2024-01-10T10:03:53;31.05;;;14.55;;
77409;SDS011;66481;51.332;22.804;2024-01-10T10:07:57;36.30;;;16.02;;
77409;SDS011;66481;51.332;22.804;2024-01-10T10:11:59;33.33;;;15.88;;
77409;SDS011;66481;51.332;22.804;2024-01-10T10:16:01;29.60;;;13.35;;
77409;SDS011;66481;51.332;22.804;2024-01-10T10:20:05;30.73;;;13.75;;
77409;SDS011;66481;51.332;22.804;2024-01-10T10:24:06;32.28;;;14.90;;
77409;SDS011;66481;51.332;22.804;2024-01-10T10:28:10;28.35;;;13.20;;
77409;SDS011;66481;51.332;22.804;2024-01-10T10:32:12;29.30;;;13.73;;
77409;SDS011;66481;51.332;22.804;2024-01-10T10:36:15;28.77;;;14.75;;
77409;SDS011;66481;51.332;22.804;2024-01-10T10:40:17;29.20;;;13.98;;
77409;SDS011;66481;51.332;22.804;2024-01-10T10:44:19;31.40;;;14.95;;
77409;SDS011;66481;51.332;22.804;2024-01-10T10:48:25;29.08;;;14.68;;
77409;SDS011;66481;51.332;22.804;2024-01-10T10:52:27;29.50;;;14.48;;
77409;SDS011;66481;51.332;22.804;2024-01-10T10:56:29;30.05;;;15.88;;
77409;SDS011;66481;51.332;22.804;2024-01-10T11:04:36;33.38;;;17.25;;
77409;SDS011;66481;51.332;22.804;2024-01-10T11:25:52;33.05;;;15.65;;
77409;SDS011;66481;51.332;22.804;2024-01-10T11:29:54;33.65;;;15.60;;
77409;SDS011;66481;51.332;22.804;2024-01-10T11:33:58;35.60;;;17.67;;
77409;SDS011;66481;51.332;22.804;2024-01-10T11:38:00;33.63;;;16.65;;
77409;SDS011;66481;51.332;22.804;2024-01-10T11:42:07;34.00;;;16.15;;
77409;SDS011;66481;51.332;22.804;2024-01-10T11:46:10;30.95;;;15.57;;
77409;SDS011;66481;51.332;22.804;2024-01-10T11:50:13;32.30;;;16.67;;
77409;SDS011;66481;51.332;22.804;2024-01-10T11:59:01;34.97;;;16.75;;
77409;SDS011;66481;51.332;22.804;2024-01-10T12:03:07;35.53;;;17.13;;
77409;SDS011;66481;51.332;22.804;2024-01-10T12:07:08;36.72;;;18.08;;
77409;SDS011;66481;51.332;22.804;2024-01-10T12:11:10;30.85;;;15.00;;
77409;SDS011;66481;51.332;22.804;2024-01-10T12:15:12;35.83;;;16.98;;
77409;SDS011;66481;51.332;22.804;2024-01-10T12:19:15;29.60;;;16.05;;
77409;SDS011;66481;51.332;22.804;2024-01-10T12:23:16;34.55;;;14.85;;
77409;SDS011;66481;51.332;22.804;2024-01-10T12:27:18;33.03;;;14.93;;
77409;SDS011;66481;51.332;22.804;2024-01-10T12:31:21;26.88;;;13.43;;
77409;SDS011;66481;51.332;22.804;2024-01-10T12:35:23;29.70;;;14.93;;
77409;SDS011;66481;51.332;22.804;2024-01-10T12:39:26;29.52;;;15.65;;
77409;SDS011;66481;51.332;22.804;2024-01-10T12:43:32;28.33;;;13.38;;
77409;SDS011;66481;51.332;22.804;2024-01-10T12:47:34;29.05;;;13.20;;
77409;SDS011;66481;51.332;22.804;2024-01-10T12:51:36;29.20;;;14.85;;
77409;SDS011;66481;51.332;22.804;2024-01-10T12:55:37;33.20;;;13.68;;
77409;SDS011;66481;51.332;22.804;2024-01-10T12:59:39;28.45;;;13.88;;
77409;SDS011;66481;51.332;22.804;2024-01-10T13:03:40;33.65;;;14.52;;
77409;SDS011;66481;51.332;22.804;2024-01-10T13:07:43;33.75;;;15.15;;
77409;SDS011;66481;51.332;22.804;2024-01-10T13:11:45;38.38;;;16.67;;
77409;SDS011;66481;51.332;22.804;2024-01-10T13:15:46;37.22;;;17.33;;
77409;SDS011;66481;51.332;22.804;2024-01-10T13:19:52;38.20;;;16.50;;
77409;SDS011;66481;51.332;22.804;2024-01-10T13:23:54;35.22;;;15.68;;
77409;SDS011;66481;51.332;22.804;2024-01-10T13:27:56;37.67;;;13.73;;
77409;SDS011;66481;51.332;22.804;2024-01-10T13:31:58;29.05;;;14.25;;
77409;SDS011;66481;51.332;22.804;2024-01-10T13:36:00;30.63;;;12.40;;
77409;SDS011;66481;51.332;22.804;2024-01-10T13:40:02;39.35;;;17.65;;
77409;SDS011;66481;51.332;22.804;2024-01-10T13:44:07;23.20;;;10.15;;
77409;SDS011;66481;51.332;22.804;2024-01-10T13:48:09;30.40;;;15.57;;
77409;SDS011;66481;51.332;22.804;2024-01-10T13:52:11;35.65;;;15.73;;
77409;SDS011;66481;51.332;22.804;2024-01-10T13:56:12;35.53;;;16.63;;
77409;SDS011;66481;51.332;22.804;2024-01-10T14:00:13;36.20;;;15.40;;
77409;SDS011;66481;51.332;22.804;2024-01-10T14:04:18;32.70;;;16.02;;
77409;SDS011;66481;51.332;22.804;2024-01-10T14:08:20;28.17;;;13.18;;
77409;SDS011;66481;51.332;22.804;2024-01-10T14:12:21;33.33;;;17.00;;
77409;SDS011;66481;51.332;22.804;2024-01-10T14:16:23;30.55;;;15.32;;
77409;SDS011;66481;51.332;22.804;2024-01-10T14:20:24;33.33;;;15.10;;
77409;SDS011;66481;51.332;22.804;2024-01-10T14:24:27;31.88;;;15.70;;
77409;SDS011;66481;51.332;22.804;2024-01-10T14:28:28;39.03;;;18.50;;
77409;SDS011;66481;51.332;22.804;2024-01-10T14:32:30;39.65;;;19.65;;
77409;SDS011;66481;51.332;22.804;2024-01-10T14:36:34;52.33;;;22.02;;
77409;SDS011;66481;51.332;22.804;2024-01-10T14:40:35;48.47;;;24.30;;
77409;SDS011;66481;51.332;22.804;2024-01-10T14:44:36;40.50;;;18.65;;
77409;SDS011;66481;51.332;22.804;2024-01-10T14:48:37;39.67;;;19.52;;
77409;SDS011;66481;51.332;22.804;2024-01-10T14:52:39;37.55;;;16.13;;
77409;SDS011;66481;51.332;22.804;2024-01-10T14:56:40;44.92;;;18.77;;
77409;SDS011;66481;51.332;22.804;2024-01-10T15:00:44;49.95;;;20.67;;
77409;SDS011;66481;51.332;22.804;2024-01-10T15:04:45;36.28;;;21.00;;
77409;SDS011;66481;51.332;22.804;2024-01-10T15:08:47;49.00;;;20.23;;
77409;SDS011;66481;51.332;22.804;2024-01-10T15:12:48;31.15;;;14.23;;
77409;SDS011;66481;51.332;22.804;2024-01-10T15:16:50;46.50;;;20.52;;
77409;SDS011;66481;51.332;22.804;2024-01-10T15:20:51;40.47;;;20.67;;
77409;SDS011;66481;51.332;22.804;2024-01-10T15:24:53;49.28;;;20.92;;
77409;SDS011;66481;51.332;22.804;2024-01-10T15:28:54;37.40;;;15.65;;
77409;SDS011;66481;51.332;22.804;2024-01-10T15:32:56;42.13;;;19.65;;
77409;SDS011;66481;51.332;22.804;2024-01-10T15:36:59;37.90;;;18.33;;
77409;SDS011;66481;51.332;22.804;2024-01-10T15:41:02;31.08;;;14.88;;
77409;SDS011;66481;51.332;22.804;2024-01-10T15:45:13;26.60;;;14.18;;
77409;SDS011;66481;51.332;22.804;2024-01-10T15:49:14;30.48;;;11.13;;
77409;SDS011;66481;51.332;22.804;2024-01-10T15:53:18;28.33;;;13.65;;
77409;SDS011;66481;51.332;22.804;2024-01-10T15:57:22;33.88;;;16.65;;
77409;SDS011;66481;51.332;22.804;2024-01-10T16:01:24;32.85;;;15.07;;
77409;SDS011;66481;51.332;22.804;2024-01-10T16:05:26;32.53;;;15.15;;
77409;SDS011;66481;51.332;22.804;2024-01-10T16:09:28;23.13;;;13.18;;
77409;SDS011;66481;51.332;22.804;2024-01-10T16:13:29;31.58;;;15.43;;
77409;SDS011;66481;51.332;22.804;2024-01-10T16:17:30;33.97;;;16.52;;
77409;SDS011;66481;51.332;22.804;2024-01-10T16:21:32;29.52;;;15.38;;
77409;SDS011;66481;51.332;22.804;2024-01-10T16:25:33;39.92;;;19.55;;
77409;SDS011;66481;51.332;22.804;2024-01-10T16:29:37;25.85;;;11.50;;
77409;SDS011;66481;51.332;22.804;2024-01-10T16:33:41;34.10;;;15.77;;
77409;SDS011;66481;51.332;22.804;2024-01-10T16:37:42;40.10;;;18.23;;
77409;SDS011;66481;51.332;22.804;2024-01-10T16:41:46;41.63;;;19.13;;
77409;SDS011;66481;51.332;22.804;2024-01-10T16:45:48;41.38;;;19.40;;
77409;SDS011;66481;51.332;22.804;2024-01-10T16:49:49;40.63;;;19.70;;
77409;SDS011;66481;51.332;22.804;2024-01-10T16:53:51;31.33;;;14.75;;
77409;SDS011;66481;51.332;22.804;2024-01-10T16:57:52;28.27;;;15.40;;
77409;SDS011;66481;51.332;22.804;2024-01-10T17:01:55;30.23;;;16.33;;
77409;SDS011;66481;51.332;22.804;2024-01-10T17:05:57;34.17;;;16.42;;
77409;SDS011;66481;51.332;22.804;2024-01-10T17:09:59;26.75;;;12.68;;
77409;SDS011;66481;51.332;22.804;2024-01-10T17:14:04;21.50;;;12.40;;
77409;SDS011;66481;51.332;22.804;2024-01-10T17:18:06;25.50;;;14.57;;
77409;SDS011;66481;51.332;22.804;2024-01-10T17:22:07;22.88;;;10.07;;
77409;SDS011;66481;51.332;22.804;2024-01-10T17:26:09;24.83;;;12.20;;
77409;SDS011;66481;51.332;22.804;2024-01-10T17:30:10;26.08;;;13.25;;
77409;SDS011;66481;51.332;22.804;2024-01-10T17:34:13;38.50;;;16.35;;
77409;SDS011;66481;51.332;22.804;2024-01-10T17:38:15;51.08;;;15.98;;
77409;SDS011;66481;51.332;22.804;2024-01-10T17:42:17;30.23;;;17.48;;
77409;SDS011;66481;51.332;22.804;2024-01-10T17:46:19;36.72;;;17.55;;
77409;SDS011;66481;51.332;22.804;2024-01-10T17:50:21;42.70;;;19.48;;
77409;SDS011;66481;51.332;22.804;2024-01-10T17:54:25;37.30;;;16.23;;
77409;SDS011;66481;51.332;22.804;2024-01-10T17:58:27;30.73;;;13.68;;
77409;SDS011;66481;51.332;22.804;2024-01-10T18:02:28;57.83;;;24.38;;
77409;SDS011;66481;51.332;22.804;2024-01-10T18:06:30;31.52;;;19.13;;
77409;SDS011;66481;51.332;22.804;2024-01-10T18:10:31;47.30;;;21.38;;
77409;SDS011;66481;51.332;22.804;2024-01-10T18:14:32;47.92;;;23.90;;
77409;SDS011;66481;51.332;22.804;2024-01-10T18:18:34;60.97;;;29.08;;
77409;SDS011;66481;51.332;22.804;2024-01-10T18:22:36;72.40;;;30.92;;
77409;SDS011;66481;51.332;22.804;2024-01-10T18:26:38;64.80;;;31.10;;
77409;SDS011;66481;51.332;22.804;2024-01-10T18:30:44;49.60;;;25.05;;
77409;SDS011;66481;51.332;22.804;2024-01-10T18:34:46;68.70;;;27.70;;
77409;SDS011;66481;51.332;22.804;2024-01-10T18:38:49;47.88;;;26.52;;
77409;SDS011;66481;51.332;22.804;2024-01-10T18:42:52;48.15;;;24.05;;
77409;SDS011;66481;51.332;22.804;2024-01-10T18:46:53;47.35;;;23.10;;
77409;SDS011;66481;51.332;22.804;2024-01-10T18:50:56;70.22;;;25.80;;
77409;SDS011;66481;51.332;22.804;2024-01-10T18:54:58;37.95;;;19.27;;
77409;SDS011;66481;51.332;22.804;2024-01-10T18:58:59;42.00;;;21.52;;
77409;SDS011;66481;51.332;22.804;2024-01-10T19:03:02;44.65;;;21.02;;
77409;SDS011;66481;51.332;22.804;2024-01-10T19:07:05;45.03;;;22.55;;
77409;SDS011;66481;51.332;22.804;2024-01-10T19:11:07;46.55;;;22.58;;
77409;SDS011;66481;51.332;22.804;2024-01-10T19:15:11;46.13;;;22.90;;
77409;SDS011;66481;51.332;22.804;2024-01-10T19:19:14;53.78;;;25.55;;
77409;SDS011;66481;51.332;22.804;2024-01-10T19:23:17;47.47;;;25.00;;
77409;SDS011;66481;51.332;22.804;2024-01-10T19:27:19;46.50;;;22.63;;
77409;SDS011;66481;51.332;22.804;2024-01-10T19:31:21;38.88;;;18.48;;
77409;SDS011;66481;51.332;22.804;2024-01-10T19:35:23;32.50;;;17.65;;
77409;SDS011;66481;51.332;22.804;2024-01-10T19:39:26;36.65;;;16.05;;
77409;SDS011;66481;51.332;22.804;2024-01-10T19:43:29;48.88;;;23.10;;
77409;SDS011;66481;51.332;22.804;2024-01-10T19:47:33;57.72;;;25.92;;
77409;SDS011;66481;51.332;22.804;2024-01-10T19:51:35;45.25;;;22.92;;
77409;SDS011;66481;51.332;22.804;2024-01-10T19:55:37;47.90;;;24.83;;
77409;SDS011;66481;51.332;22.804;2024-01-10T19:59:38;47.15;;;24.52;;
77409;SDS011;66481;51.332;22.804;2024-01-10T20:03:40;41.75;;;21.02;;
77409;SDS011;66481;51.332;22.804;2024-01-10T20:07:43;48.42;;;23.23;;
77409;SDS011;66481;51.332;22.804;2024-01-10T20:11:44;36.88;;;18.60;;
77409;SDS011;66481;51.332;22.804;2024-01-10T20:15:46;32.92;;;19.42;;
77409;SDS011;66481;51.332;22.804;2024-01-10T20:19:48;55.13;;;25.05;;
77409;SDS011;66481;51.332;22.804;2024-01-10T20:23:49;39.72;;;19.67;;
77409;SDS011;66481;51.332;22.804;2024-01-10T20:27:58;34.88;;;19.65;;
77409;SDS011;66481;51.332;22.804;2024-01-10T20:32:01;29.80;;;17.75;;
77409;SDS011;66481;51.332;22.804;2024-01-10T20:36:07;45.10;;;19.80;;
77409;SDS011;66481;51.332;22.804;2024-01-10T20:40:09;40.42;;;18.00;;
77409;SDS011;66481;51.332;22.804;2024-01-10T20:44:11;39.45;;;18.45;;
77409;SDS011;66481;51.332;22.804;2024-01-10T20:48:13;37.38;;;18.20;;
77409;SDS011;66481;51.332;22.804;2024-01-10T20:52:15;36.40;;;16.80;;
77409;SDS011;66481;51.332;22.804;2024-01-10T20:56:18;38.67;;;18.60;;
77409;SDS011;66481;51.332;22.804;2024-01-10T21:00:20;34.47;;;18.58;;
77409;SDS011;66481;51.332;22.804;2024-01-10T21:04:26;33.83;;;16.95;;
77409;SDS011;66481;51.332;22.804;2024-01-10T21:08:29;36.25;;;15.52;;
77409;SDS011;66481;51.332;22.804;2024-01-10T21:12:30;28.08;;;12.55;;
77409;SDS011;66481;51.332;22.804;2024-01-10T21:16:31;42.00;;;16.45;;
77409;SDS011;66481;51.332;22.804;2024-01-10T21:20:32;40.53;;;18.60;;
77409;SDS011;66481;51.332;22.804;2024-01-10T21:24:34;52.25;;;22.40;;
77409;SDS011;66481;51.332;22.804;2024-01-10T21:28:37;40.85;;;15.32;;
77409;SDS011;66481;51.332;22.804;2024-01-10T21:32:39;53.60;;;20.38;;
77409;SDS011;66481;51.332;22.804;2024-01-10T21:36:40;44.30;;;17.52;;
77409;SDS011;66481;51.332;22.804;2024-01-10T21:40:42;34.70;;;15.82;;
77409;SDS011;66481;51.332;22.804;2024-01-10T21:44:43;38.30;;;16.08;;
77409;SDS011;66481;51.332;22.804;2024-01-10T21:48:45;32.20;;;14.98;;
77409;SDS011;66481;51.332;22.804;2024-01-10T21:52:46;33.33;;;13.52;;
77409;SDS011;66481;51.332;22.804;2024-01-10T21:56:48;41.88;;;16.63;;
77409;SDS011;66481;51.332;22.804;2024-01-10T22:00:49;36.55;;;15.15;;
77409;SDS011;66481;51.332;22.804;2024-01-10T22:04:51;30.67;;;14.65;;
77409;SDS011;66481;51.332;22.804;2024-01-10T22:08:53;38.53;;;17.83;;
77409;SDS011;66481;51.332;22.804;2024-01-10T22:12:55;34.25;;;15.75;;
77409;SDS011;66481;51.332;22.804;2024-01-10T22:16:56;36.50;;;16.45;;
77409;SDS011;66481;51.332;22.804;2024-01-10T22:20:57;37.35;;;17.23;;
77409;SDS011;66481;51.332;22.804;2024-01-10T22:25:00;35.78;;;15.13;;
77409;SDS011;66481;51.332;22.804;2024-01-10T22:29:01;27.90;;;14.00;;
77409;SDS011;66481;51.332;22.804;2024-01-10T22:33:03;23.13;;;11.55;;
77409;SDS011;66481;51.332;22.804;2024-01-10T22:37:04;31.42;;;13.57;;
77409;SDS011;66481;51.332;22.804;2024-01-10T22:41:06;26.92;;;14.38;;
77409;SDS011;66481;51.332;22.804;2024-01-10T22:45:07;23.42;;;14.23;;
77409;SDS011;66481;51.332;22.804;2024-01-10T22:49:09;30.15;;;12.85;;
77409;SDS011;66481;51.332;22.804;2024-01-10T22:53:10;25.30;;;12.13;;
77409;SDS011;66481;51.332;22.804;2024-01-10T22:57:12;23.10;;;12.82;;
77409;SDS011;66481;51.332;22.804;2024-01-10T23:01:14;24.77;;;13.10;;
77409;SDS011;66481;51.332;22.804;2024-01-10T23:05:15;39.97;;;16.58;;
77409;SDS011;66481;51.332;22.804;2024-01-10T23:09:16;27.77;;;14.02;;
77409;SDS011;66481;51.332;22.804;2024-01-10T23:13:17;25.08;;;13.70;;
77409;SDS011;66481;51.332;22.804;2024-01-10T23:17:19;27.10;;;12.75;;
77409;SDS011;66481;51.332;22.804;2024-01-10T23:21:20;24.10;;;12.32;;
77409;SDS011;66481;51.332;22.804;2024-01-10T23:25:21;32.85;;;14.20;;
77409;SDS011;66481;51.332;22.804;2024-01-10T23:29:22;29.15;;;15.35;;
77409;SDS011;66481;51.332;22.804;2024-01-10T23:33:23;25.92;;;11.50;;
77409;SDS011;66481;51.332;22.804;2024-01-10T23:37:24;21.45;;;11.63;;
77409;SDS011;66481;51.332;22.804;2024-01-10T23:41:25;24.42;;;11.75;;
77409;SDS011;66481;51.332;22.804;2024-01-10T23:45:26;24.88;;;11.85;;